Time;durP1;ratioP1;P1;durP2;ratioP2;P2;SDS_P1;SDS_P2;PMS_P1;PMS_P2;Temp;Humidity;BMP_temperature;BMP_pressure;BME280_temperature;BME280_humidity;BME280_pressure;Samples;Min_cycle;Max_cycle;Signal;HPM_P1;HPM_P2
2021/04/06 00:01:00;;;;;;;2.08;1.17;;;1.00;99.90;;;;;;12352932;28;20057;-44
2021/04/06 00:07:05;;;;;;;3.67;1.30;;;1.10;99.90;;;;;;12358810;28;20145;-42
2021/04/06 00:13:07;;;;;;;;;;;1.00;99.90;;;;;;12366268;28;20088;-42
2021/04/06 00:19:10;;;;;;;4.05;1.80;;;1.00;99.90;;;;;;12373407;28;19949;-42
2021/04/06 00:25:17;;;;;;;3.45;1.48;;;1.00;99.90;;;;;;12354561;28;20074;-42
2021/04/06 00:31:18;;;;;;;3.55;2.00;;;1.10;99.90;;;;;;12371172;28;20137;-42
2021/04/06 00:37:20;;;;;;;3.75;2.00;;;1.00;99.90;;;;;;12366633;28;20551;-44
2021/04/06 00:43:32;;;;;;;3.05;1.50;;;1.00;99.90;;;;;;12367239;28;21048;-43
2021/04/06 00:49:35;;;;;;;3.38;1.52;;;1.00;99.90;;;;;;12371934;28;20554;-42
2021/04/06 00:55:39;;;;;;;3.40;1.60;;;1.10;99.90;;;;;;12368765;28;20137;-43
2021/04/06 01:01:43;;;;;;;5.40;1.60;;;1.00;99.90;;;;;;12365013;28;20046;-43
2021/04/06 01:07:45;;;;;;;2.85;1.30;;;0.90;99.90;;;;;;12370364;28;20141;-42
2021/04/06 01:13:47;;;;;;;2.63;1.38;;;0.70;99.90;;;;;;12368879;28;20165;-42
2021/04/06 01:19:49;;;;;;;9.55;1.83;;;0.70;99.90;;;;;;12363815;28;20081;-43
2021/04/06 01:25:56;;;;;;;4.88;1.50;;;0.70;99.90;;;;;;12367755;28;20462;-44
2021/04/06 01:31:59;;;;;;;4.53;1.20;;;0.60;99.90;;;;;;12351846;28;20074;-43
2021/04/06 01:38:00;;;;;;;3.20;1.30;;;0.60;99.90;;;;;;12366608;28;20046;-42
2021/04/06 01:44:02;;;;;;;3.42;1.50;;;0.50;99.90;;;;;;12369926;28;20140;-42
2021/04/06 01:50:05;;;;;;;6.57;1.52;;;0.50;99.90;;;;;;12364979;28;20569;-42
2021/04/06 01:56:15;;;;;;;6.43;1.95;;;0.60;99.90;;;;;;12363628;28;20089;-42
2021/04/06 02:02:16;;;;;;;3.33;1.35;;;0.50;99.90;;;;;;12364330;28;20470;-43
2021/04/06 02:08:20;;;;;;;4.85;1.55;;;0.50;99.90;;;;;;12365572;28;20057;-43
2021/04/06 02:14:23;;;;;;;5.93;2.08;;;0.50;99.90;;;;;;12367265;28;20144;-42
2021/04/06 02:20:26;;;;;;;4.75;2.20;;;0.70;99.90;;;;;;12359682;28;20136;-45
2021/04/06 02:26:28;;;;;;;9.18;2.10;;;0.70;99.90;;;;;;12355278;28;20100;-42
2021/04/06 02:32:32;;;;;;;7.72;1.90;;;0.60;99.90;;;;;;12361622;28;20105;-42
2021/04/06 02:38:42;;;;;;;6.75;2.08;;;0.70;99.90;;;;;;12363015;28;20138;-42
2021/04/06 02:44:49;;;;;;;;;;;0.70;99.90;;;;;;12361286;28;20133;-43
2021/04/06 02:50:51;;;;;;;5.57;2.00;;;0.70;99.90;;;;;;12360833;28;19925;-43
2021/04/06 02:56:52;;;;;;;5.38;2.30;;;0.80;99.90;;;;;;12365894;28;20494;-46
2021/04/06 03:02:58;;;;;;;6.38;2.45;;;0.70;99.90;;;;;;12380538;28;20144;-42
2021/04/06 03:08:59;;;;;;;6.28;2.53;;;0.80;99.90;;;;;;12363477;28;20054;-43
2021/04/06 03:15:04;;;;;;;12.80;3.45;;;0.80;99.90;;;;;;12361454;28;20141;-42
2021/04/06 03:21:11;;;;;;;6.70;3.38;;;0.80;99.90;;;;;;12357529;28;20050;-42
2021/04/06 03:27:12;;;;;;;9.20;3.63;;;0.90;99.90;;;;;;12359721;28;20569;-44
2021/04/06 03:33:14;;;;;;;6.63;3.05;;;0.90;99.90;;;;;;12355633;28;20543;-42
2021/04/06 03:39:16;;;;;;;9.65;3.17;;;0.90;99.90;;;;;;12352288;28;20542;-42
2021/04/06 03:45:18;;;;;;;12.57;2.83;;;0.80;99.90;;;;;;12366576;28;20048;-43
2021/04/06 03:51:23;;;;;;;4.38;2.45;;;0.90;99.90;;;;;;12373395;28;20052;-43
2021/04/06 03:57:39;;;;;;;5.35;2.33;;;0.80;99.90;;;;;;12371315;28;20133;-43
2021/04/06 04:03:41;;;;;;;7.07;2.20;;;0.80;99.90;;;;;;12359267;28;20115;-43
2021/04/06 04:09:43;;;;;;;8.25;1.85;;;0.90;99.90;;;;;;12371173;28;20054;-43
2021/04/06 04:15:45;;;;;;;3.45;1.90;;;1.00;99.90;;;;;;12369241;28;20038;-44
2021/04/06 04:21:47;;;;;;;7.32;1.73;;;0.90;99.90;;;;;;12360194;28;20146;-44
2021/04/06 04:27:48;;;;;;;5.80;1.50;;;0.90;99.90;;;;;;12359500;28;20058;-42
2021/04/06 04:33:49;;;;;;;6.25;1.30;;;0.90;99.90;;;;;;12367415;28;20077;-43
2021/04/06 04:39:51;;;;;;;5.05;1.70;;;0.90;99.90;;;;;;12347191;28;20050;-44
2021/04/06 04:46:04;;;;;;;4.20;1.40;;;1.00;99.90;;;;;;12363436;28;20216;-44
2021/04/06 04:52:05;;;;;;;7.38;1.83;;;0.90;99.90;;;;;;12366239;28;20049;-42
2021/04/06 04:58:07;;;;;;;5.05;1.50;;;1.00;99.90;;;;;;12362775;28;20192;-44
2021/04/06 05:04:08;;;;;;;8.50;2.10;;;1.00;99.90;;;;;;12357784;28;20100;-42
2021/04/06 05:10:12;;;;;;;4.38;1.33;;;0.90;99.90;;;;;;12358551;28;20049;-43
2021/04/06 05:16:14;;;;;;;5.87;1.40;;;0.90;99.90;;;;;;12358649;28;20092;-43
2021/04/06 05:22:16;;;;;;;7.50;1.33;;;0.80;99.90;;;;;;12364602;28;20499;-42
2021/04/06 05:28:17;;;;;;;8.93;1.60;;;0.90;99.90;;;;;;12361149;28;20116;-43
2021/04/06 05:34:19;;;;;;;5.45;2.08;;;1.00;99.90;;;;;;12366906;28;20054;-44
2021/04/06 05:40:20;;;;;;;7.60;2.92;;;1.10;99.90;;;;;;12365900;28;20556;-42
2021/04/06 05:46:22;;;;;;;8.23;2.85;;;1.30;99.90;;;;;;12363196;28;20085;-42
2021/04/06 05:52:24;;;;;;;6.70;3.20;;;1.20;99.90;;;;;;12367370;28;20050;-42
2021/04/06 05:58:26;;;;;;;12.40;4.43;;;1.30;99.90;;;;;;12353059;28;21891;-43
2021/04/06 06:04:27;;;;;;;10.75;4.45;;;1.20;99.90;;;;;;12357833;28;20046;-44
2021/04/06 06:10:31;;;;;;;12.98;4.35;;;1.30;99.90;;;;;;12361895;28;20129;-44
2021/04/06 06:16:33;;;;;;;12.93;3.50;;;1.30;99.90;;;;;;12361033;28;20050;-44
2021/04/06 06:22:36;;;;;;;9.60;3.05;;;1.50;99.90;;;;;;12361337;28;20632;-43
2021/04/06 06:28:38;;;;;;;11.02;4.07;;;1.50;99.90;;;;;;12353867;28;20060;-43
2021/04/06 06:34:40;;;;;;;9.27;4.18;;;1.60;99.90;;;;;;12361017;28;20100;-43
2021/04/06 06:40:43;;;;;;;12.38;3.60;;;1.60;99.90;;;;;;12365796;28;20053;-44
2021/04/06 06:46:44;;;;;;;13.93;3.42;;;1.70;99.90;;;;;;12361621;28;20537;-42
2021/04/06 06:52:59;;;;;;;10.80;2.70;;;1.70;99.90;;;;;;12368545;28;20049;-43
2021/04/06 06:59:00;;;;;;;14.27;3.65;;;1.90;99.90;;;;;;12361535;28;20305;-42
2021/04/06 07:05:11;;;;;;;13.25;4.18;;;2.00;99.90;;;;;;12352886;28;20054;-43
2021/04/06 07:11:21;;;;;;;12.65;2.75;;;1.90;99.90;;;;;;12359477;28;20054;-43
2021/04/06 07:17:23;;;;;;;11.88;2.33;;;1.90;99.90;;;;;;12366858;28;20387;-43
2021/04/06 07:23:37;;;;;;;12.70;2.65;;;2.20;99.90;;;;;;12368071;28;20095;-43
2021/04/06 07:29:41;;;;;;;15.50;2.75;;;2.20;99.90;;;;;;12374156;28;20088;-42
2021/04/06 07:35:43;;;;;;;11.90;2.28;;;2.20;99.90;;;;;;12361137;28;20454;-43
2021/04/06 07:41:46;;;;;;;14.95;2.35;;;2.30;99.90;;;;;;12362542;28;20691;-43
2021/04/06 07:47:48;;;;;;;9.05;1.80;;;2.30;99.90;;;;;;12373232;28;20426;-43
2021/04/06 07:53:56;;;;;;;13.85;2.75;;;2.30;99.90;;;;;;12368497;28;20124;-43
2021/04/06 07:59:57;;;;;;;12.80;2.45;;;2.40;99.90;;;;;;12373225;28;20095;-44
2021/04/06 08:06:21;;;;;;;13.70;2.45;;;2.60;99.90;;;;;;12371784;28;20046;-43
2021/04/06 08:12:36;;;;;;;13.40;2.63;;;2.90;99.90;;;;;;12368174;28;20087;-44
2021/04/06 08:18:53;;;;;;;15.23;2.17;;;2.70;99.90;;;;;;12370455;28;20104;-43
2021/04/06 08:25:23;;;;;;;15.80;2.55;;;2.80;99.90;;;;;;12375045;28;20056;-47
2021/04/06 08:31:28;;;;;;;9.43;1.70;;;3.00;99.90;;;;;;12365962;28;20052;-43
2021/04/06 08:37:36;;;;;;;13.18;2.42;;;3.30;99.90;;;;;;12364886;28;20100;-43
2021/04/06 08:43:43;;;;;;;8.05;2.33;;;3.30;99.90;;;;;;12368557;28;20143;-43
2021/04/06 08:49:45;;;;;;;11.50;2.03;;;3.50;99.90;;;;;;12372773;28;20430;-43
2021/04/06 08:55:47;;;;;;;6.00;1.50;;;3.50;99.90;;;;;;12370129;28;20051;-43
2021/04/06 09:01:53;;;;;;;11.57;1.95;;;3.40;99.90;;;;;;12372042;28;20108;-45
2021/04/06 09:07:55;;;;;;;10.45;2.05;;;3.40;99.90;;;;;;12360899;28;20104;-43
2021/04/06 09:13:56;;;;;;;10.65;2.13;;;3.50;99.90;;;;;;12360740;28;20054;-44
2021/04/06 09:20:15;;;;;;;10.68;1.80;;;3.90;99.90;;;;;;12361631;28;20141;-43
2021/04/06 09:26:16;;;;;;;12.85;1.80;;;4.00;99.90;;;;;;12351774;28;20123;-42
2021/04/06 09:32:21;;;;;;;8.57;2.05;;;3.80;99.90;;;;;;12362991;28;20054;-42
2021/04/06 09:38:24;;;;;;;10.07;2.05;;;4.10;99.90;;;;;;12360387;28;20402;-45
2021/04/06 09:44:29;;;;;;;13.23;1.80;;;4.20;99.90;;;;;;12367362;28;20054;-43
2021/04/06 09:50:30;;;;;;;7.82;1.58;;;4.40;99.90;;;;;;12367437;28;20525;-42
2021/04/06 09:56:35;;;;;;;7.60;1.63;;;4.40;99.90;;;;;;12370583;28;20121;-44
2021/04/06 10:02:37;;;;;;;3.90;1.00;;;5.00;99.90;;;;;;12368039;28;20050;-42
2021/04/06 10:08:38;;;;;;;10.93;1.55;;;4.50;99.90;;;;;;12361408;28;20100;-44
2021/04/06 10:14:41;;;;;;;6.10;1.42;;;4.80;99.90;;;;;;12366816;28;20437;-42
2021/04/06 10:20:45;;;;;;;6.68;1.27;;;4.80;99.90;;;;;;12366012;28;20092;-43
2021/04/06 10:27:22;;;;;;;6.50;1.17;;;5.00;99.90;;;;;;12366546;28;20824;-42
2021/04/06 10:33:30;;;;;;;5.10;1.17;;;4.70;99.90;;;;;;12363195;28;20294;-42
2021/04/06 10:39:37;;;;;;;7.05;1.55;;;4.40;99.90;;;;;;12361553;28;20098;-44
2021/04/06 10:45:44;;;;;;;5.95;1.23;;;4.30;99.90;;;;;;12360384;28;20546;-42
2021/04/06 10:51:55;;;;;;;4.38;1.38;;;4.70;99.90;;;;;;12362897;28;20046;-44
2021/04/06 10:57:57;;;;;;;5.38;1.17;;;4.60;99.90;;;;;;12364681;28;20046;-43
2021/04/06 11:03:59;;;;;;;5.75;1.17;;;4.70;99.90;;;;;;12352351;28;20050;-43
2021/04/06 11:10:08;;;;;;;3.97;0.95;;;4.70;99.90;;;;;;12356649;28;20050;-42
2021/04/06 11:16:10;;;;;;;5.93;1.50;;;4.60;99.90;;;;;;12353927;28;20509;-42
2021/04/06 11:22:14;;;;;;;5.45;1.05;;;5.20;99.90;;;;;;12359487;28;20057;-42
2021/04/06 11:28:15;;;;;;;4.20;0.93;;;4.90;99.90;;;;;;12355744;28;20104;-42
2021/04/06 11:34:17;;;;;;;8.10;1.30;;;4.80;99.90;;;;;;12357542;28;20082;-43
2021/04/06 11:40:18;;;;;;;5.45;1.23;;;4.50;99.90;;;;;;12364795;28;20493;-42
2021/04/06 11:46:20;;;;;;;5.93;1.40;;;4.40;99.90;;;;;;12356938;28;20112;-42
2021/04/06 11:52:21;;;;;;;4.15;1.33;;;4.90;99.90;;;;;;12364017;28;20046;-43
2021/04/06 11:58:22;;;;;;;5.72;1.30;;;4.90;99.90;;;;;;12364155;28;20046;-42
2021/04/06 12:04:24;;;;;;;4.50;1.15;;;5.30;99.90;;;;;;12367277;28;21006;-42
2021/04/06 12:10:25;;;;;;;5.45;1.13;;;5.30;99.90;;;;;;12369888;28;20096;-44
2021/04/06 12:16:26;;;;;;;6.97;1.10;;;5.30;99.90;;;;;;12366867;28;20064;-42
2021/04/06 12:22:28;;;;;;;5.93;1.15;;;5.40;99.90;;;;;;12370209;28;20050;-42
2021/04/06 12:28:30;;;;;;;3.97;1.40;;;5.40;99.90;;;;;;12367391;28;20054;-42
2021/04/06 12:34:31;;;;;;;4.70;1.38;;;5.20;99.90;;;;;;12359445;28;20062;-42
2021/04/06 12:40:33;;;;;;;4.38;1.30;;;5.60;99.90;;;;;;12377188;28;20442;-43
2021/04/06 12:46:34;;;;;;;13.82;1.30;;;6.10;99.90;;;;;;12368655;28;20475;-43
2021/04/06 12:52:35;;;;;;;4.43;0.90;;;6.40;99.90;;;;;;12373110;28;20565;-42
2021/04/06 12:58:37;;;;;;;4.53;0.73;;;5.60;99.90;;;;;;12361272;28;20061;-42
2021/04/06 13:04:40;;;;;;;2.75;0.90;;;4.00;99.90;;;;;;12372326;28;20141;-43
2021/04/06 13:10:43;;;;;;;4.97;0.73;;;3.90;99.90;;;;;;12364093;28;20100;-43
2021/04/06 13:16:45;;;;;;;5.93;1.15;;;4.40;99.90;;;;;;12363661;28;20050;-43
2021/04/06 13:22:46;;;;;;;5.32;0.98;;;4.90;99.90;;;;;;12371482;28;20050;-43
2021/04/06 13:28:48;;;;;;;6.35;1.38;;;4.80;99.90;;;;;;12370501;28;21181;-42
2021/04/06 13:34:49;;;;;;;3.83;0.82;;;4.20;99.90;;;;;;12358272;28;20177;-42
2021/04/06 13:40:51;;;;;;;4.68;1.40;;;4.50;99.90;;;;;;12361251;28;20371;-42
2021/04/06 13:46:52;;;;;;;4.28;1.42;;;5.40;99.90;;;;;;12369222;28;20113;-42
2021/04/06 13:52:54;;;;;;;4.28;0.90;;;5.60;99.90;;;;;;12371254;28;20638;-43
2021/04/06 13:58:55;;;;;;;1.45;0.50;;;4.40;99.90;;;;;;12365704;28;20056;-42
2021/04/06 14:04:56;;;;;;;2.90;0.80;;;3.10;99.90;;;;;;12361705;28;20177;-43
2021/04/06 14:10:59;;;;;;;3.63;0.80;;;2.30;99.90;;;;;;12369346;28;20058;-43
2021/04/06 14:17:01;;;;;;;3.72;0.93;;;1.80;99.90;;;;;;12361067;28;20062;-44
2021/04/06 14:23:09;;;;;;;6.32;1.13;;;1.70;99.90;;;;;;12354469;28;20137;-43
2021/04/06 14:29:11;;;;;;;4.90;1.10;;;1.80;99.90;;;;;;12352041;28;20085;-44
2021/04/06 14:35:15;;;;;;;2.85;0.80;;;1.80;99.90;;;;;;12360345;28;20161;-42
2021/04/06 14:41:16;;;;;;;4.93;1.20;;;1.70;99.90;;;;;;12357293;28;20042;-42
2021/04/06 14:47:17;;;;;;;2.45;0.80;;;1.50;99.90;;;;;;12368390;28;20063;-42
2021/04/06 14:53:20;;;;;;;2.70;1.05;;;2.10;99.90;;;;;;12362642;28;20107;-43
2021/04/06 14:59:22;;;;;;;2.75;1.35;;;2.40;99.90;;;;;;12361373;28;20116;-44
2021/04/06 15:05:24;;;;;;;5.70;1.20;;;2.80;99.90;;;;;;12364591;28;20045;-44
2021/04/06 15:11:28;;;;;;;3.92;0.93;;;2.90;99.90;;;;;;12362940;28;20464;-45
2021/04/06 15:17:30;;;;;;;6.97;1.35;;;2.50;99.90;;;;;;12362558;28;20050;-43
2021/04/06 15:23:32;;;;;;;6.40;0.95;;;2.40;99.90;;;;;;12360096;28;20051;-43
2021/04/06 15:29:36;;;;;;;5.78;1.80;;;2.40;99.90;;;;;;12352091;28;20058;-42
2021/04/06 15:35:39;;;;;;;6.40;1.15;;;2.50;99.90;;;;;;12352863;28;20072;-42
2021/04/06 15:41:42;;;;;;;4.00;1.17;;;2.40;99.90;;;;;;12364952;28;20109;-43
2021/04/06 15:47:44;;;;;;;4.35;0.90;;;2.30;99.90;;;;;;12369630;28;20159;-43
2021/04/06 15:53:45;;;;;;;3.58;1.08;;;1.90;99.90;;;;;;12356372;28;20061;-43
2021/04/06 15:59:48;;;;;;;6.40;1.58;;;1.80;99.90;;;;;;12363405;28;20057;-43
2021/04/06 16:06:00;;;;;;;3.80;0.95;;;2.40;99.90;;;;;;12364905;28;20054;-42
2021/04/06 16:12:03;;;;;;;3.60;1.15;;;3.30;99.90;;;;;;12362026;28;20565;-43
2021/04/06 16:18:05;;;;;;;8.38;1.58;;;3.70;99.90;;;;;;12362788;28;20145;-43
2021/04/06 16:24:07;;;;;;;3.67;1.10;;;3.80;99.90;;;;;;12361970;28;20054;-44
2021/04/06 16:30:10;;;;;;;5.88;1.40;;;3.40;99.90;;;;;;12362504;28;20061;-43
2021/04/06 16:36:12;;;;;;;6.05;1.38;;;3.20;99.90;;;;;;12361108;28;20488;-45
2021/04/06 16:42:14;;;;;;;7.38;1.80;;;2.90;99.90;;;;;;12369568;28;20050;-42
2021/04/06 16:48:21;;;;;;;3.20;1.27;;;2.70;99.90;;;;;;12371163;28;20494;-42
2021/04/06 16:54:22;;;;;;;6.22;1.35;;;2.30;99.90;;;;;;12368462;28;20080;-44
2021/04/06 17:00:25;;;;;;;2.80;1.08;;;2.00;99.90;;;;;;12367899;28;20481;-42
2021/04/06 17:06:26;;;;;;;4.93;1.20;;;1.70;99.90;;;;;;12355568;28;20135;-42
2021/04/06 17:12:28;;;;;;;5.15;1.20;;;2.00;99.90;;;;;;12356164;28;20095;-42
2021/04/06 17:18:29;;;;;;;3.42;1.05;;;2.10;99.90;;;;;;12365069;28;20069;-42
2021/04/06 17:24:31;;;;;;;3.65;1.00;;;1.90;99.90;;;;;;12364201;28;20471;-43
2021/04/06 17:30:37;;;;;;;3.45;1.00;;;1.30;99.90;;;;;;12349669;28;20236;-43
2021/04/06 17:36:40;;;;;;;2.72;0.82;;;1.00;99.90;;;;;;12355988;28;20078;-43
2021/04/06 17:42:41;;;;;;;14.95;6.13;;;1.00;99.90;;;;;;12354724;28;20042;-43
2021/04/06 17:48:44;;;;;;;3.92;1.00;;;1.00;99.90;;;;;;12365166;28;20050;-44
2021/04/06 17:54:45;;;;;;;6.78;2.40;;;1.00;99.90;;;;;;12358790;28;20042;-43
2021/04/06 18:00:48;;;;;;;3.90;1.35;;;1.10;99.90;;;;;;12363435;28;20045;-43
2021/04/06 18:06:50;;;;;;;4.13;1.20;;;1.10;99.90;;;;;;12350081;28;20054;-42
2021/04/06 18:12:51;;;;;;;3.13;1.20;;;1.10;99.90;;;;;;12356919;28;20115;-44
2021/04/06 18:18:52;;;;;;;7.55;1.60;;;1.20;99.90;;;;;;12358923;28;20800;-43
2021/04/06 18:24:54;;;;;;;7.30;1.83;;;1.20;99.90;;;;;;12355532;28;20410;-45
2021/04/06 18:30:55;;;;;;;7.85;2.03;;;1.30;99.90;;;;;;12364970;28;20140;-44
2021/04/06 18:36:57;;;;;;;6.43;1.90;;;1.30;99.90;;;;;;12361143;28;20088;-44
2021/04/06 18:42:59;;;;;;;7.57;1.80;;;1.10;99.90;;;;;;12355283;28;20092;-43
2021/04/06 18:49:02;;;;;;;6.15;2.00;;;0.90;99.90;;;;;;12360073;28;20069;-43
2021/04/06 18:55:04;;;;;;;10.38;2.03;;;0.90;99.90;;;;;;12363659;28;20842;-43
2021/04/06 19:01:09;;;;;;;7.88;2.20;;;0.80;99.90;;;;;;12357787;28;20686;-43
2021/04/06 19:07:11;;;;;;;5.38;1.48;;;0.80;99.90;;;;;;12361981;28;20054;-44
2021/04/06 19:13:14;;;;;;;7.80;1.95;;;1.10;99.90;;;;;;12366278;28;20107;-42
2021/04/06 19:19:16;;;;;;;3.90;1.67;;;1.20;99.90;;;;;;12365710;28;20058;-43
2021/04/06 19:25:17;;;;;;;4.68;1.67;;;1.10;99.90;;;;;;12369215;28;20059;-42
2021/04/06 19:31:19;;;;;;;4.60;1.95;;;1.00;99.90;;;;;;12369677;28;20146;-42
2021/04/06 19:37:20;;;;;;;3.88;1.70;;;1.00;99.90;;;;;;12373645;28;20054;-43
2021/04/06 19:43:23;;;;;;;6.07;1.88;;;0.90;99.90;;;;;;12372404;28;20051;-43
2021/04/06 19:49:25;;;;;;;6.88;1.75;;;1.00;99.90;;;;;;12375355;28;20057;-43
2021/04/06 19:55:30;;;;;;;4.63;1.92;;;1.00;99.90;;;;;;12364789;28;20137;-44
2021/04/06 20:01:31;;;;;;;;;;;0.90;99.90;;;;;;12372848;28;20135;-42
2021/04/06 20:07:33;;;;;;;5.22;1.50;;;0.90;99.90;;;;;;12371021;28;20987;-46
2021/04/06 20:13:35;;;;;;;6.75;1.92;;;0.90;99.90;;;;;;12371932;28;20220;-43
2021/04/06 20:19:37;;;;;;;3.47;1.50;;;0.90;99.90;;;;;;12368398;28;20411;-43
2021/04/06 20:25:40;;;;;;;6.60;1.65;;;0.90;99.90;;;;;;12363907;28;20043;-43
2021/04/06 20:31:42;;;;;;;5.28;1.48;;;1.00;99.90;;;;;;12378304;28;20060;-43
2021/04/06 20:37:43;;;;;;;4.97;1.17;;;0.90;99.90;;;;;;12371602;28;20486;-43
2021/04/06 20:43:45;;;;;;;5.63;1.35;;;0.90;99.90;;;;;;12374522;28;20057;-42
2021/04/06 20:49:46;;;;;;;7.88;1.33;;;0.90;99.90;;;;;;12373404;28;20046;-42
2021/04/06 20:55:48;;;;;;;4.50;1.20;;;1.00;99.90;;;;;;12369147;28;20054;-43
2021/04/06 21:01:51;;;;;;;3.90;1.40;;;1.00;99.90;;;;;;12367930;28;20052;-44
2021/04/06 21:07:52;;;;;;;6.75;1.50;;;1.00;99.90;;;;;;12365775;28;20096;-44
2021/04/06 21:13:54;;;;;;;5.45;1.73;;;1.00;99.90;;;;;;12366907;28;20391;-43
2021/04/06 21:19:55;;;;;;;6.53;2.33;;;1.10;99.90;;;;;;12362634;28;20505;-44
2021/04/06 21:25:56;;;;;;;5.28;1.75;;;1.00;99.90;;;;;;12368952;28;20887;-43
2021/04/06 21:32:11;;;;;;;4.32;1.98;;;1.00;99.90;;;;;;12365688;28;20085;-43
2021/04/06 21:38:13;;;;;;;8.55;2.33;;;1.00;99.90;;;;;;12357530;28;20405;-43
2021/04/06 21:44:14;;;;;;;9.10;3.55;;;0.90;99.90;;;;;;12357320;28;20050;-43
2021/04/06 21:50:20;;;;;;;6.70;2.50;;;0.90;99.90;;;;;;12369105;28;20133;-43
2021/04/06 21:56:21;;;;;;;9.80;2.72;;;0.90;99.90;;;;;;12366118;28;20145;-42
2021/04/06 22:02:22;;;;;;;7.53;2.50;;;0.90;99.90;;;;;;12362953;28;20054;-43
2021/04/06 22:08:24;;;;;;;6.80;2.22;;;0.90;99.90;;;;;;12353876;28;20046;-43
2021/04/06 22:14:25;;;;;;;6.47;2.20;;;1.00;99.90;;;;;;12368149;28;20046;-42
2021/04/06 22:20:31;;;;;;;6.13;2.28;;;1.00;99.90;;;;;;12361159;28;20056;-44
2021/04/06 22:26:33;;;;;;;5.47;2.50;;;1.00;99.90;;;;;;12360659;28;20057;-42
2021/04/06 22:32:34;;;;;;;7.30;2.25;;;1.00;99.90;;;;;;12361543;28;20509;-43
2021/04/06 22:38:39;;;;;;;5.40;1.98;;;1.00;99.90;;;;;;12362050;28;20054;-43
2021/04/06 22:44:42;;;;;;;5.68;2.10;;;1.10;99.90;;;;;;12361284;28;20544;-43
2021/04/06 22:50:47;;;;;;;3.60;1.75;;;1.00;99.90;;;;;;12358990;28;20478;-43
2021/04/06 22:56:49;;;;;;;3.88;1.73;;;0.90;99.90;;;;;;12357608;28;20099;-42
2021/04/06 23:02:50;;;;;;;6.45;2.40;;;1.00;99.90;;;;;;12360088;28;20931;-43
2021/04/06 23:08:52;;;;;;;4.93;2.55;;;1.00;99.90;;;;;;12361589;28;20054;-44
2021/04/06 23:14:53;;;;;;;7.18;2.80;;;0.90;99.90;;;;;;12366679;28;20133;-42
2021/04/06 23:20:55;;;;;;;7.25;3.45;;;0.90;99.90;;;;;;12359488;28;20050;-43
2021/04/06 23:26:56;;;;;;;7.70;4.13;;;0.90;99.90;;;;;;12356899;28;20050;-42
2021/04/06 23:32:57;;;;;;;8.88;3.75;;;0.80;99.90;;;;;;12362469;28;20050;-43
2021/04/06 23:39:00;;;;;;;9.55;3.80;;;0.80;99.90;;;;;;12354992;28;20050;-43
2021/04/06 23:45:03;;;;;;;6.55;4.00;;;0.80;99.90;;;;;;12357461;28;20062;-44
2021/04/06 23:51:04;;;;;;;11.85;4.75;;;0.90;99.90;;;;;;12360780;28;20054;-43
2021/04/06 23:57:06;;;;;;;8.55;4.45;;;0.80;99.90;;;;;;12359526;28;20106;-42
